Airways and Terminal Forecast

Significant Meteorological Information

WSPH31 RPLL 100358 
RPHI SIGMET A02 VALID 100358/100758 RPLL-
RPHI MANILA FIR EMBD TS OBS WI N0726 E11937 - N0452 E12027 - N0501 E11917 - N0730 E11730 - N0826 E11831 - N0726 E11937 TOP FL520 STNR NC=

Terminal Aerodrome Forecast

TAF RPLL

 

092300Z 1000/1106 11006KT 9999 FEW025 TX32/1006Z TN25/1021Z TEMPO 1000/1006 10012KT FEW023 SCT100 TEMPO 1006/1012 12011KT FEW023 BKN090=

TAF RPVM

092300Z 1000/1106 05008KT 9999 FEW020 BKN300 TEMPO 1000/1006 04013KT FEW018CB FEW020 BKN100 TEMPO 1006/1012 36013KT 9000 -TSRA FEW018CB SCT020 BKN090=

TAF RPLC

092300Z 1000/1106 03008KT 9999 FEW020 BKN300 TX31/1006Z TN22/1022Z TEMPO 1000/1006 33008KT FEW020 BKN100=

TAF RPLB

092300Z 1000/1024 07006KT 9999 FEW020 TX31/1006Z TN23/1021Z TEMPO 1000/1006 05010KT FEW020 SCT080 BKN300=

TAF RPLI

092300Z 1000/1024 03010KT 9999 FEW018 TEMPO 1000/1006 05018KT FEW018 SCT290=

TAF RPVP

092300Z 1000/1024 09006KT 9999 FEW019 SCT250 TEMPO 1000/1006 07012KT -SHRA FEW017CB SCT019 BKN080=

TAF RPVD

092300Z 1000/1024 34006KT 9999 FEW015 SCT070 BKN220 TEMPO 1000/1006 04014KT 9000 -SHRA SCT014CB BKN070=

TAF RPMR

092300Z 1000/1024 16006KT 9999 FEW018 SCT250 TEMPO 1000/1006 14008KT FEW017CB FEW020 BKN080=

TAF RPMD

092300Z 1000/1024 02006KT 9999 FEW016 SCT090 BKN290 TEMPO 1000/1006 04008KT FEW016 SCT290 TEMPO 1006/1012 20007KT 9000 -TSRA SCT015CB BKN090 OVC290=

TAF RPMZ

092300Z 1000/1024 05005KT 9999 FEW017 SCT090 BKN300 TEMPO 1000/1006 25008KT FEW016CB BKN090=

RPLL FORECAST TAKE-OFF CONDITION

TIME

(UTC)

WIND

(dddffKT)

TEMP

(°C)

QNH

(hPa)

TIME

(UTC)

WIND

(dddffKT)

TEMP

(°C)

QNH

(hPa)

0000

VRB02KT

27.0

1013.0

0400

12006KT

31.0

1014.0

0100

11003KT

28.0

1013.0

0500

10008KT

31.5

1013.0

0200

10004KT

28.5

1014.0

0600

11011KT

30.5

1011.0

0300

11005KT

30.0

1014.0

0700

12012KT

30.0

1010.0

ISSUED AT NAIA AMSS-WD/PAGASA-DOST FOR 2300UTC 09 DECEMBER 2019

PREPARED BY:               CHH

CHECKED BY:                 LLAB